createdAt,value
2019-01-31T00:02:39.981Z,6.30
2019-01-31T00:05:42.444Z,6.39
2019-01-31T00:08:49.563Z,6.46
2019-01-31T00:11:45.302Z,6.42
2019-01-31T00:14:40.004Z,6.33
2019-01-31T00:17:36.266Z,6.18
2019-01-31T00:20:30.514Z,6.21
2019-01-31T00:23:42.594Z,6.21
2019-01-31T00:26:52.011Z,6.34
2019-01-31T00:30:14.581Z,6.24
2019-01-31T00:33:21.082Z,6.22
2019-01-31T00:36:36.505Z,6.32
2019-01-31T00:39:40.939Z,6.24
2019-01-31T00:42:37.659Z,6.31
2019-01-31T00:45:28.703Z,6.19
2019-01-31T00:48:27.031Z,6.27
2019-01-31T00:51:20.674Z,6.26
2019-01-31T00:54:00.333Z,6.38
2019-01-31T00:57:19.896Z,6.47
2019-01-31T01:00:05.675Z,6.42
2019-01-31T01:02:44.370Z,6.41
2019-01-31T01:05:37.426Z,6.53
2019-01-31T01:08:45.158Z,6.53
2019-01-31T01:11:36.287Z,6.44
2019-01-31T01:14:50.479Z,6.39
2019-01-31T01:17:50.934Z,6.41
2019-01-31T01:21:07.023Z,6.34
2019-01-31T01:24:10.894Z,6.31
2019-01-31T01:27:25.512Z,6.36
2019-01-31T01:30:51.122Z,6.46
2019-01-31T01:34:02.723Z,6.43
2019-01-31T01:36:50.574Z,6.50
2019-01-31T01:40:04.212Z,6.50
2019-01-31T01:43:05.511Z,6.35
2019-01-31T01:46:08.926Z,6.29
2019-01-31T01:49:12.444Z,6.35
2019-01-31T01:52:07.947Z,6.28
2019-01-31T01:55:03.114Z,6.37
2019-01-31T01:58:08.574Z,6.27
2019-01-31T02:01:09.974Z,6.25
2019-01-31T02:04:11.234Z,6.21
2019-01-31T02:07:05.191Z,6.23
2019-01-31T02:10:21.517Z,6.19
2019-01-31T02:13:20.031Z,6.13
2019-01-31T02:16:24.966Z,6.19
2019-01-31T02:19:10.542Z,6.20
2019-01-31T02:22:36.153Z,6.28
2019-01-31T02:25:19.799Z,6.22
2019-01-31T02:28:22.327Z,6.21
2019-01-31T02:31:08.397Z,6.24
2019-01-31T02:34:23.882Z,6.24
2019-01-31T02:37:39.973Z,6.29
2019-01-31T02:40:40.463Z,6.22
2019-01-31T02:43:35.400Z,6.26
2019-01-31T02:46:42.044Z,6.24
2019-01-31T02:49:36.571Z,6.24
2019-01-31T02:52:22.470Z,6.21
2019-01-31T02:55:34.500Z,6.26
2019-01-31T02:58:33.599Z,6.26
2019-01-31T03:01:29.188Z,6.30
2019-01-31T03:04:43.397Z,6.32
2019-01-31T03:07:38.068Z,6.38
2019-01-31T03:10:39.477Z,6.24
2019-01-31T03:13:29.593Z,6.17
2019-01-31T03:16:13.314Z,6.23
2019-01-31T03:18:51.283Z,6.25
2019-01-31T03:22:06.662Z,6.24
2019-01-31T03:25:15.048Z,6.17
2019-01-31T03:28:16.554Z,6.18
2019-01-31T03:31:18.712Z,6.19
2019-01-31T03:34:31.515Z,6.17
2019-01-31T03:37:26.090Z,6.10
2019-01-31T03:40:47.809Z,6.15
2019-01-31T03:43:39.089Z,6.04
2019-01-31T03:47:04.770Z,5.98
2019-01-31T03:49:51.416Z,6.02
2019-01-31T03:53:00.783Z,6.11
2019-01-31T03:55:51.364Z,5.98
2019-01-31T03:59:00.711Z,5.97
2019-01-31T04:02:14.746Z,6.12
2019-01-31T04:04:54.163Z,5.98
2019-01-31T04:07:23.756Z,5.94
2019-01-31T04:09:53.262Z,5.91
2019-01-31T04:12:22.803Z,5.91
2019-01-31T04:14:52.320Z,5.97
2019-01-31T04:17:21.932Z,6.02
2019-01-31T04:19:51.449Z,6.01
2019-01-31T04:22:21.032Z,6.04
2019-01-31T04:24:50.573Z,5.96
2019-01-31T04:27:20.096Z,5.92
2019-01-31T04:29:49.778Z,5.94
2019-01-31T04:32:19.389Z,5.93
2019-01-31T04:34:49.035Z,5.92
2019-01-31T04:37:18.641Z,5.85
2019-01-31T04:39:48.218Z,5.84
2019-01-31T04:42:17.817Z,5.77
2019-01-31T04:44:47.410Z,5.83
2019-01-31T04:47:17.034Z,5.94
2019-01-31T04:49:46.518Z,5.88
2019-01-31T04:52:16.033Z,5.75
2019-01-31T04:54:45.642Z,5.77
2019-01-31T04:57:15.312Z,5.79
2019-01-31T04:59:44.852Z,5.64
2019-01-31T05:02:14.434Z,5.63
2019-01-31T05:04:44.022Z,5.67
2019-01-31T05:07:13.527Z,5.72
2019-01-31T05:09:43.100Z,5.77
2019-01-31T05:12:12.676Z,5.70
2019-01-31T05:14:42.231Z,5.82
2019-01-31T05:17:11.728Z,5.71
2019-01-31T05:19:41.247Z,5.69
2019-01-31T05:22:10.853Z,5.66
2019-01-31T05:24:40.433Z,5.68
2019-01-31T05:27:12.345Z,5.60
2019-01-31T05:29:41.905Z,5.59
2019-01-31T05:32:11.774Z,5.58
2019-01-31T05:34:41.302Z,5.62
2019-01-31T05:37:11.193Z,5.58
2019-01-31T05:39:40.870Z,5.62
2019-01-31T05:42:10.550Z,5.71
2019-01-31T05:44:40.086Z,5.64
2019-01-31T05:47:09.574Z,5.66
2019-01-31T05:49:39.126Z,5.46
2019-01-31T05:52:08.722Z,5.65
2019-01-31T05:54:38.244Z,5.67
2019-01-31T05:57:08.011Z,5.59
2019-01-31T05:59:37.612Z,5.50
2019-01-31T06:02:07.141Z,5.54
2019-01-31T06:04:36.723Z,5.49
2019-01-31T06:07:11.260Z,5.59
2019-01-31T06:09:37.580Z,5.60
2019-01-31T06:12:07.163Z,5.49
2019-01-31T06:14:36.767Z,5.60
2019-01-31T06:17:06.427Z,5.63
2019-01-31T06:19:36.031Z,5.54
2019-01-31T06:22:05.605Z,5.58
2019-01-31T06:24:35.193Z,5.43
2019-01-31T06:27:05.051Z,5.37
2019-01-31T06:29:34.637Z,5.44
2019-01-31T06:32:04.358Z,5.57
2019-01-31T06:34:33.990Z,5.76
2019-01-31T06:37:03.575Z,5.69
2019-01-31T06:39:33.207Z,5.54
2019-01-31T06:42:02.842Z,5.49
2019-01-31T06:44:32.438Z,5.42
2019-01-31T06:47:01.955Z,5.37
2019-01-31T06:49:31.485Z,5.39
2019-01-31T06:52:01.050Z,5.42
2019-01-31T06:54:30.873Z,5.39
2019-01-31T06:57:00.498Z,5.38
2019-01-31T06:59:30.066Z,5.35
2019-01-31T07:01:59.701Z,5.27
2019-01-31T07:04:29.343Z,5.45
2019-01-31T07:06:58.846Z,5.44
2019-01-31T07:09:28.409Z,5.38
2019-01-31T07:11:57.984Z,5.37
2019-01-31T07:14:27.485Z,5.25
2019-01-31T07:16:57.073Z,5.23
2019-01-31T07:19:26.563Z,5.41
2019-01-31T07:21:56.062Z,5.25
2019-01-31T07:24:25.564Z,5.33
2019-01-31T07:26:55.200Z,5.39
2019-01-31T07:29:24.832Z,5.59
2019-01-31T07:31:54.570Z,5.53
2019-01-31T07:34:24.189Z,5.51
2019-01-31T07:36:53.745Z,5.60
2019-01-31T07:39:23.265Z,5.86
2019-01-31T07:41:52.871Z,6.03
2019-01-31T07:44:22.354Z,6.05
2019-01-31T07:46:52.156Z,6.14
2019-01-31T07:49:21.611Z,5.98
2019-01-31T07:51:51.259Z,6.22
2019-01-31T07:54:20.758Z,6.25
2019-01-31T07:56:50.313Z,6.07
2019-01-31T07:59:19.959Z,6.57
2019-01-31T08:01:49.513Z,6.60
2019-01-31T08:04:19.033Z,6.82
2019-01-31T08:06:48.858Z,6.63
2019-01-31T08:09:18.432Z,6.61
2019-01-31T08:11:52.649Z,6.55
2019-01-31T08:14:19.255Z,6.33
2019-01-31T08:16:48.747Z,6.40
2019-01-31T08:19:18.306Z,6.51
2019-01-31T08:21:47.928Z,6.62
2019-01-31T08:24:19.078Z,6.47
2019-01-31T08:26:48.579Z,6.56
2019-01-31T08:29:18.084Z,6.54
2019-01-31T08:31:47.681Z,6.52
2019-01-31T08:34:17.158Z,6.56
2019-01-31T08:36:46.723Z,6.49
2019-01-31T08:39:16.210Z,6.71
2019-01-31T08:41:45.859Z,6.81
2019-01-31T08:44:15.409Z,7.00
2019-01-31T08:46:44.950Z,6.91
2019-01-31T08:49:14.511Z,6.88
2019-01-31T08:51:44.480Z,6.99
2019-01-31T08:54:14.139Z,7.20
2019-01-31T08:56:43.712Z,7.13
2019-01-31T08:59:13.223Z,7.18
2019-01-31T09:01:42.740Z,7.09
2019-01-31T09:04:12.406Z,7.22
2019-01-31T09:06:41.940Z,7.52
2019-01-31T09:09:13.623Z,7.48
2019-01-31T09:11:43.245Z,7.50
2019-01-31T09:14:12.702Z,7.64
2019-01-31T09:16:42.212Z,7.78
2019-01-31T09:19:11.820Z,7.85
2019-01-31T09:22:01.432Z,7.98
2019-01-31T09:24:52.896Z,8.24
2019-01-31T09:28:07.421Z,8.74
2019-01-31T09:31:06.200Z,8.51
2019-01-31T09:34:10.818Z,8.49
2019-01-31T09:36:57.816Z,8.73
2019-01-31T09:40:22.735Z,8.90
2019-01-31T09:46:52.714Z,9.18
2019-01-31T09:50:03.315Z,9.23
2019-01-31T09:53:08.479Z,9.43
2019-01-31T09:55:55.045Z,9.57
2019-01-31T09:58:40.563Z,9.63
2019-01-31T10:01:55.634Z,9.76
2019-01-31T10:04:31.128Z,9.92
2019-01-31T10:07:52.363Z,10.09
2019-01-31T10:10:56.419Z,10.20
2019-01-31T10:14:00.980Z,10.36
2019-01-31T10:16:38.767Z,10.49
2019-01-31T10:19:38.720Z,10.64
2019-01-31T10:22:52.427Z,10.73
2019-01-31T10:26:02.168Z,10.88
2019-01-31T10:29:02.631Z,11.06
2019-01-31T10:32:00.866Z,11.19
2019-01-31T10:34:58.889Z,11.35
2019-01-31T10:38:15.644Z,11.52
2019-01-31T10:41:12.759Z,11.70
2019-01-31T10:44:17.020Z,11.84
2019-01-31T10:47:33.981Z,11.97
2019-01-31T10:50:40.478Z,12.10
2019-01-31T10:53:41.322Z,12.22
2019-01-31T10:57:07.239Z,12.35
2019-01-31T10:59:47.400Z,12.47
2019-01-31T11:02:40.166Z,12.63
2019-01-31T11:05:47.717Z,12.75
2019-01-31T11:09:05.241Z,12.81
2019-01-31T11:12:13.840Z,12.90
2019-01-31T11:15:11.803Z,13.02
2019-01-31T11:18:05.739Z,13.20
2019-01-31T11:21:16.633Z,13.27
2019-01-31T11:24:06.420Z,13.33
2019-01-31T11:27:15.497Z,13.38
2019-01-31T11:30:35.007Z,13.57
2019-01-31T11:33:45.463Z,13.76
2019-01-31T11:37:05.291Z,13.89
2019-01-31T11:40:28.062Z,13.95
2019-01-31T11:43:26.433Z,14.12
2019-01-31T11:46:36.462Z,14.27
2019-01-31T11:49:31.511Z,14.36
2019-01-31T12:18:10.419Z,15.26
2019-01-31T12:20:40.162Z,15.34
2019-01-31T12:23:09.861Z,15.32
2019-01-31T12:25:39.663Z,15.04
2019-01-31T12:28:09.403Z,14.95
2019-01-31T12:30:39.061Z,15.02
2019-01-31T12:33:08.797Z,15.12
2019-01-31T12:35:38.323Z,15.32
2019-01-31T12:38:08.026Z,15.41
2019-01-31T12:40:38.116Z,15.33
2019-01-31T12:43:07.756Z,15.38
2019-01-31T12:45:37.754Z,15.62
2019-01-31T12:48:07.477Z,15.42
2019-01-31T12:50:37.092Z,15.35
2019-01-31T12:53:06.693Z,15.50
2019-01-31T12:55:36.292Z,15.75
2019-01-31T12:58:06.198Z,15.84
2019-01-31T13:00:35.822Z,15.61
2019-01-31T13:03:05.449Z,15.56
2019-01-31T13:05:35.148Z,15.38
2019-01-31T13:08:04.747Z,15.33
2019-01-31T13:10:35.362Z,15.10
2019-01-31T13:13:05.376Z,14.94
2019-01-31T13:15:35.083Z,15.01
2019-01-31T13:18:05.417Z,14.75
2019-01-31T13:20:35.037Z,14.64
2019-01-31T13:23:04.875Z,14.85
2019-01-31T13:25:34.750Z,14.65
2019-01-31T13:28:04.851Z,14.60
2019-01-31T13:30:34.551Z,14.41
2019-01-31T13:33:04.266Z,14.55
2019-01-31T13:35:34.102Z,14.59
2019-01-31T13:38:03.857Z,14.55
2019-01-31T13:40:33.546Z,14.49
2019-01-31T13:43:03.040Z,14.43
2019-01-31T13:45:34.809Z,14.42
2019-01-31T13:48:07.696Z,14.33
2019-01-31T13:50:37.538Z,14.20
2019-01-31T13:53:08.311Z,14.11
2019-01-31T13:55:37.853Z,14.03
2019-01-31T13:58:10.077Z,13.95
2019-01-31T14:00:38.813Z,13.83
2019-01-31T14:03:08.396Z,13.71
2019-01-31T14:05:37.974Z,13.61
2019-01-31T14:08:08.181Z,13.51
2019-01-31T14:10:37.813Z,13.46
2019-01-31T14:13:07.667Z,13.36
2019-01-31T14:15:37.785Z,13.29
2019-01-31T14:18:07.422Z,13.20
2019-01-31T14:20:37.070Z,13.11
2019-01-31T14:23:07.011Z,13.05
2019-01-31T14:25:36.792Z,13.06
2019-01-31T14:28:06.456Z,13.04
2019-01-31T14:30:37.944Z,12.97
2019-01-31T14:33:15.371Z,12.91
2019-01-31T14:35:45.002Z,12.87
2019-01-31T14:38:14.609Z,12.81
2019-01-31T14:40:44.280Z,12.76
2019-01-31T14:43:13.920Z,12.79
2019-01-31T14:45:43.850Z,12.76
2019-01-31T14:48:13.453Z,12.74
2019-01-31T14:50:43.400Z,12.67
2019-01-31T14:53:12.997Z,12.64
2019-01-31T14:55:42.679Z,12.70
2019-01-31T14:58:12.470Z,12.77
2019-01-31T15:00:42.107Z,12.89
2019-01-31T15:03:11.748Z,13.00
2019-01-31T15:05:41.462Z,13.10
2019-01-31T15:08:11.547Z,13.22
2019-01-31T15:10:41.296Z,13.33
2019-01-31T15:13:11.157Z,13.42
2019-01-31T15:15:40.947Z,13.44
2019-01-31T15:18:10.904Z,13.46
2019-01-31T15:20:43.361Z,13.41
2019-01-31T15:23:17.997Z,13.30
2019-01-31T15:25:47.698Z,13.20
2019-01-31T15:28:17.452Z,13.12
2019-01-31T15:30:47.260Z,13.06
2019-01-31T15:33:17.043Z,12.91
2019-01-31T15:35:47.103Z,12.77
2019-01-31T15:38:16.971Z,12.74
2019-01-31T15:40:48.412Z,12.73
2019-01-31T15:43:18.692Z,12.75
2019-01-31T15:45:48.446Z,12.78
2019-01-31T15:48:18.461Z,12.71
2019-01-31T15:50:48.160Z,12.62
2019-01-31T15:53:17.906Z,12.57
2019-01-31T15:55:47.565Z,12.47
2019-01-31T15:58:17.456Z,12.38
2019-01-31T16:00:49.655Z,12.32
2019-01-31T16:03:21.282Z,12.24
2019-01-31T16:05:52.770Z,12.13
2019-01-31T16:08:23.476Z,12.03
2019-01-31T16:10:53.458Z,11.93
2019-01-31T16:13:23.401Z,11.83
2019-01-31T16:15:54.550Z,11.72
2019-01-31T16:18:24.165Z,11.63
2019-01-31T16:20:53.940Z,11.53
2019-01-31T16:23:23.962Z,11.44
2019-01-31T16:25:53.690Z,11.35
2019-01-31T16:28:23.618Z,11.26
2019-01-31T16:30:53.276Z,11.18
2019-01-31T16:33:23.040Z,11.06
2019-01-31T16:35:53.879Z,10.98
2019-01-31T16:38:24.097Z,10.87
2019-01-31T16:40:53.952Z,10.79
2019-01-31T16:43:23.703Z,10.70
2019-01-31T16:45:53.935Z,10.62
2019-01-31T16:48:23.714Z,10.58
2019-01-31T16:50:53.614Z,10.46
2019-01-31T16:53:23.220Z,10.39
2019-01-31T16:55:55.061Z,10.29
2019-01-31T16:58:24.294Z,10.19
2019-01-31T17:00:53.985Z,10.08
2019-01-31T17:03:23.850Z,10.01
2019-01-31T17:05:53.494Z,9.91
2019-01-31T17:08:23.290Z,9.86
2019-01-31T17:10:52.936Z,9.86
2019-01-31T17:13:23.379Z,9.84
2019-01-31T17:15:53.055Z,9.77
2019-01-31T17:18:44.028Z,9.74
2019-01-31T17:21:13.574Z,9.74
2019-01-31T17:23:43.174Z,9.67
2019-01-31T17:26:12.820Z,9.69
2019-01-31T17:28:42.456Z,9.63
2019-01-31T17:31:12.323Z,9.57
2019-01-31T17:33:42.080Z,9.49
2019-01-31T17:36:11.755Z,9.46
2019-01-31T17:38:41.537Z,9.39
2019-01-31T17:41:11.282Z,9.37
2019-01-31T17:43:40.922Z,9.36
2019-01-31T17:46:11.794Z,9.34
2019-01-31T17:48:41.539Z,9.39
2019-01-31T17:51:12.758Z,9.28
2019-01-31T17:53:42.446Z,9.28
2019-01-31T17:56:12.256Z,9.26
2019-01-31T17:58:41.884Z,9.20
2019-01-31T18:01:11.578Z,9.21
2019-01-31T18:03:41.248Z,9.27
2019-01-31T18:06:10.938Z,9.19
2019-01-31T18:08:40.487Z,9.10
2019-01-31T18:11:10.096Z,9.03
2019-01-31T18:13:39.730Z,9.21
2019-01-31T18:16:09.338Z,9.17
2019-01-31T18:18:38.948Z,9.07
2019-01-31T18:21:08.523Z,9.02
2019-01-31T18:23:38.157Z,8.98
2019-01-31T18:26:07.777Z,9.07
2019-01-31T18:28:37.380Z,8.99
2019-01-31T18:31:06.951Z,8.97
2019-01-31T18:33:36.572Z,9.05
2019-01-31T18:36:06.165Z,8.99
2019-01-31T18:38:35.739Z,8.88
2019-01-31T18:41:05.375Z,8.81
2019-01-31T18:43:34.940Z,8.83
2019-01-31T18:46:04.735Z,8.80
2019-01-31T18:48:34.921Z,8.74
2019-01-31T18:51:07.599Z,8.69
2019-01-31T18:53:37.196Z,8.63
2019-01-31T18:56:06.955Z,8.65
2019-01-31T18:58:36.640Z,8.64
2019-01-31T19:01:06.293Z,8.71
2019-01-31T19:03:36.704Z,8.62
2019-01-31T19:06:06.410Z,8.76
2019-01-31T19:08:36.109Z,8.72
2019-01-31T19:11:05.821Z,8.67
2019-01-31T19:13:35.337Z,8.65
2019-01-31T19:16:05.875Z,8.59
2019-01-31T19:18:35.528Z,8.47
2019-01-31T19:21:05.393Z,8.52
2019-01-31T19:23:34.903Z,8.55
2019-01-31T19:26:04.571Z,8.51
2019-01-31T19:28:34.163Z,8.54
2019-01-31T19:31:03.816Z,8.45
2019-01-31T19:33:33.360Z,8.46
2019-01-31T19:36:02.876Z,8.42
2019-01-31T19:38:32.450Z,8.42
2019-01-31T19:41:02.061Z,8.52
2019-01-31T19:43:31.666Z,8.43
2019-01-31T19:46:01.438Z,8.46
2019-01-31T19:48:31.154Z,8.44
2019-01-31T19:51:00.856Z,8.31
2019-01-31T19:53:30.521Z,8.31
2019-01-31T19:56:00.123Z,8.19
2019-01-31T19:58:29.676Z,8.29
2019-01-31T20:00:59.327Z,8.37
2019-01-31T20:03:28.943Z,8.16
2019-01-31T20:05:58.526Z,8.22
2019-01-31T20:08:28.263Z,8.19
2019-01-31T20:10:58.376Z,8.16
2019-01-31T20:13:28.021Z,8.02
2019-01-31T20:15:57.855Z,8.05
2019-01-31T20:18:27.691Z,8.12
2019-01-31T20:20:58.787Z,8.01
2019-01-31T20:23:28.586Z,7.98
2019-01-31T20:25:58.234Z,7.86
2019-01-31T20:28:28.026Z,7.90
2019-01-31T20:30:57.832Z,7.77
2019-01-31T20:33:27.615Z,7.83
2019-01-31T20:35:57.251Z,7.86
2019-01-31T20:38:26.934Z,7.93
2019-01-31T20:40:56.449Z,8.04
2019-01-31T20:43:26.080Z,8.20
2019-01-31T20:45:55.761Z,8.44
2019-01-31T20:48:25.279Z,8.35
2019-01-31T20:50:55.275Z,8.34
2019-01-31T20:53:24.880Z,8.30
2019-01-31T20:55:54.484Z,8.36
2019-01-31T20:58:25.319Z,8.38
2019-01-31T21:00:54.995Z,8.42
2019-01-31T21:03:24.986Z,8.41
2019-01-31T21:05:54.533Z,8.53
2019-01-31T21:08:24.178Z,8.62
2019-01-31T21:10:53.806Z,8.65
2019-01-31T21:13:23.386Z,8.41
2019-01-31T21:15:53.251Z,8.48
2019-01-31T21:18:22.704Z,8.53
2019-01-31T21:20:52.274Z,8.66
2019-01-31T21:23:21.813Z,8.59
2019-01-31T21:25:51.456Z,8.55
2019-01-31T21:28:21.052Z,8.45
2019-01-31T21:30:50.649Z,8.49
2019-01-31T21:33:20.206Z,8.59
2019-01-31T21:35:49.839Z,8.62
2019-01-31T21:38:19.457Z,8.51
2019-01-31T21:40:49.082Z,8.40
2019-01-31T21:43:18.716Z,8.69
2019-01-31T21:45:48.344Z,8.67
2019-01-31T21:48:17.969Z,8.93
2019-01-31T21:50:47.871Z,8.79
2019-01-31T21:53:17.589Z,8.80
2019-01-31T21:55:47.282Z,8.96
2019-01-31T21:58:16.943Z,9.14
2019-01-31T22:00:46.564Z,9.14
2019-01-31T22:03:16.115Z,9.04
2019-01-31T22:05:46.018Z,8.92
2019-01-31T22:08:15.599Z,9.05
2019-01-31T22:10:45.252Z,8.92
2019-01-31T22:13:14.791Z,8.68
2019-01-31T22:15:44.442Z,8.71
2019-01-31T22:18:14.231Z,8.76
2019-01-31T22:20:43.851Z,9.04
2019-01-31T22:23:13.436Z,8.83
2019-01-31T22:25:43.037Z,8.86
2019-01-31T22:28:12.683Z,9.10
2019-01-31T22:30:42.292Z,8.96
2019-01-31T22:33:11.862Z,8.98
2019-01-31T22:35:41.483Z,8.85
2019-01-31T22:38:11.054Z,8.68
2019-01-31T22:40:40.645Z,8.75
2019-01-31T22:43:10.209Z,8.96
2019-01-31T22:45:39.789Z,8.96
2019-01-31T22:48:09.686Z,8.95
2019-01-31T22:50:39.539Z,8.78
2019-01-31T22:53:09.237Z,9.11
2019-01-31T22:55:40.329Z,9.06
2019-01-31T22:58:09.948Z,9.31
2019-01-31T23:01:40.235Z,9.19
2019-01-31T23:04:09.979Z,9.26
2019-01-31T23:06:39.562Z,9.29
2019-01-31T23:09:11.431Z,9.16
2019-01-31T23:11:41.032Z,8.73
2019-01-31T23:14:10.952Z,8.60
2019-01-31T23:16:40.576Z,8.51
2019-01-31T23:19:10.310Z,8.57
2019-01-31T23:21:39.807Z,8.54
2019-01-31T23:24:09.411Z,8.52
2019-01-31T23:26:39.004Z,8.88
2019-01-31T23:29:08.795Z,9.10
2019-01-31T23:31:38.424Z,9.04
2019-01-31T23:34:08.003Z,9.12
2019-01-31T23:36:37.723Z,9.31
2019-01-31T23:39:10.418Z,9.10
2019-01-31T23:41:40.649Z,9.32
2019-01-31T23:44:10.305Z,9.22
2019-01-31T23:46:39.903Z,9.22
2019-01-31T23:49:09.754Z,9.26
2019-01-31T23:51:39.287Z,9.19
2019-01-31T23:54:08.916Z,9.25
2019-01-31T23:56:38.466Z,9.02
2019-01-31T23:59:08.063Z,9.19
